LOWILIRQ

Guest
Details From LOWI - Innsbruck Kranebitten
To LIRQ - Firenze
Flight Number -
Tags Generated
Created
Modified
Stats Distance 207 nm / 384 km
Max Altitude 0 ft / 0 m
Waypoints 2
Social Downloads 3
Likes 0
Share VATSIM

Download

Looking for another format? Having issues loading an existing format? Contact us
Advertisement - Login to hide

Notes

Generated

Route

LOWI LIRQ

ID Type Via Altitude (ft/m) Position (lat/lon) Dist (leg/tot) Name
O LOWI APT - 0 / 0 47.25883 / 11.33091 - / 0 nm
O LIRQ APT - 0 / 0 43.80507 / 11.19741 207 / 207 nm

Altitude Profile

Advertisement - Login to hide

Weather


0- 5 10 15 20 25 30 35+ Temperature / °C

Clouds and Precipitation
Forecast for 2018-10-20 06:00 UTC. Updated 2 hours ago

Ground ~20,000 ft ~40,000 ft Winds

LOWI

Details ICAO LOWI (INN)
Name Innsbruck Kranebitten
Region Austria
Timezone Europe/Vienna (UTC+2.0)
Stats Elevation 1,905 ft / 581 m (AMSL)
Location 47.260200° 11.344000°
Runways 1
Magnetic Variation 3.121° E

METAR

LOWI 200520Z VRB02KT 8000 SCT025 05/04 Q1027 NOSIG

Decode

TAF

TAF AMD LOWI 200343Z 2003/2024 VRB02KT 7000 FEW010 TX17/2014Z TN05/2005Z PROB40 TEMPO 2004/2007 0600 BCFG SCT001 BECMG 2011/2013 08007KT 9999 FEW050 BECMG 2017/2019 VRB02KT SCT050 BKN150

Decode

Departure Runways

ID Width Length Bearing (true/mag) Surface Threshold Overrun Markings Lighting
08 148 ft / 45 m 6,544 ft / 1,995 m 80.93° / 77.81° ASPHALT 338 ft / 103 m 0 ft / 0 m PREC-APP CENTERLINE REIL-OMNI
26 148 ft / 45 m 6,544 ft / 1,995 m 260.95° / 257.83° ASPHALT 0 ft / 0 m 0 ft / 0 m PREC-APP CENTERLINE MALS REIL-OMNI

LIRQ

Details ICAO LIRQ (FLR)
Name Firenze
Region Italy
Timezone Europe/Rome (UTC+2.0)
Stats Elevation 142 ft / 43 m (AMSL)
Location 43.810000° 11.205100°
Runways 1
Magnetic Variation 2.968° E

METAR

LIRQ 200520Z VRB01KT CAVOK 11/11 Q1020

Decode

TAF

TAF LIRQ 192300Z 2000/2024 03007KT CAVOK

Decode

Destination Runways

ID Width Length Bearing (true/mag) Surface Threshold Overrun Markings Lighting
05 98 ft / 30 m 5,133 ft / 1,565 m 48.11° / 45.14° ASPHALT 344 ft / 105 m 0 ft / 0 m PREC-APP EDGE THRESHOLD SSALF REIL-OMNI
23 98 ft / 30 m 5,133 ft / 1,565 m 228.12° / 225.15° ASPHALT 1,909 ft / 582 m 0 ft / 0 m PREC-APP EDGE THRESHOLD REIL-OMNI

Approach Navaids

Runway Type Ident Frequency Range Bearing (true/mag) Slope Elevation
05 DME IFZ 110.30 MHz 18 nm / 33 km - - 144 ft / 44 m (AMSL)
05 LOC-ILS IFZ 110.30 MHz 18 nm / 33 km 48.10° / 45.13 ° - 131 ft / 40 m (AMSL)
05 GS IFZ 110.30 MHz 10 nm / 19 km 47.00° / 44.03 ° 3.00° 144 ft / 44 m (AMSL)

Popular Alternatives